createdAt,value
2018-07-07T09:37:39.468Z,67.80
2018-07-07T09:40:08.768Z,53.00
2018-07-07T09:42:37.748Z,54.00
2018-07-07T09:45:06.582Z,53.50
2018-07-07T09:47:35.422Z,53.30
2018-07-07T09:50:04.639Z,53.90
2018-07-07T09:52:33.500Z,53.80
2018-07-07T09:55:02.320Z,52.80
2018-07-07T09:57:31.176Z,53.90
2018-07-07T10:00:00.214Z,53.10
2018-07-07T10:02:29.192Z,52.60
2018-07-07T10:04:58.001Z,53.40
2018-07-07T10:07:26.982Z,52.30
2018-07-07T10:09:55.936Z,51.80
2018-07-07T10:12:24.856Z,51.40
2018-07-07T10:14:54.001Z,50.00
2018-07-07T10:17:23.009Z,49.80
2018-07-07T10:19:52.021Z,50.50
2018-07-07T10:22:21.396Z,50.60
2018-07-07T10:24:50.344Z,49.00
2018-07-07T10:27:19.163Z,50.00
2018-07-07T10:29:48.154Z,51.00
2018-07-07T10:32:16.967Z,51.70
2018-07-07T10:34:45.788Z,50.90
2018-07-07T10:37:14.621Z,50.00
2018-07-07T10:39:43.460Z,49.50
2018-07-07T10:42:12.326Z,51.10
2018-07-07T10:44:41.197Z,51.20
2018-07-07T10:47:10.020Z,51.00
2018-07-07T10:49:38.892Z,50.10
2018-07-07T10:52:09.078Z,49.10
2018-07-07T10:54:37.946Z,51.10
2018-07-07T10:57:06.809Z,50.10
2018-07-07T10:59:35.712Z,50.20
2018-07-07T11:02:04.576Z,51.20
2018-07-07T11:04:33.396Z,49.60
2018-07-07T11:07:02.234Z,49.10
2018-07-07T11:09:31.076Z,49.40
2018-07-07T11:12:00.087Z,49.00
2018-07-07T11:14:29.148Z,49.00
2018-07-07T11:16:58.148Z,48.40
2018-07-07T11:19:27.109Z,49.40
2018-07-07T11:21:56.159Z,49.20
2018-07-07T11:24:25.072Z,49.30
2018-07-07T11:26:53.965Z,49.00
2018-07-07T11:29:22.877Z,49.20
2018-07-07T11:31:52.032Z,49.20
2018-07-07T11:34:20.893Z,48.80
2018-07-07T11:36:49.877Z,49.60
2018-07-07T11:39:18.808Z,48.20
2018-07-07T11:41:47.740Z,49.30
2018-07-07T11:44:16.689Z,49.50
2018-07-07T11:46:45.573Z,49.30
2018-07-07T11:49:14.559Z,49.20
2018-07-07T11:51:43.390Z,49.20
2018-07-07T11:54:12.305Z,47.80
2018-07-07T11:56:41.138Z,47.50
2018-07-07T11:59:10.000Z,48.90
2018-07-07T12:01:38.820Z,49.20
2018-07-07T12:04:07.876Z,51.40
2018-07-07T12:06:36.766Z,48.60
2018-07-07T12:09:06.719Z,47.60
2018-07-07T12:11:35.844Z,48.40
2018-07-07T12:14:04.905Z,46.80
2018-07-07T12:16:34.770Z,47.20
2018-07-07T12:19:03.840Z,47.00
2018-07-07T12:24:01.284Z,47.30
2018-07-07T12:26:30.142Z,46.50
2018-07-07T12:28:59.064Z,47.80
2018-07-07T12:31:28.003Z,47.80
2018-07-07T12:33:57.040Z,48.00
2018-07-07T12:36:25.888Z,47.80
2018-07-07T12:38:54.773Z,46.70
2018-07-07T12:41:23.596Z,46.60
2018-07-07T12:43:52.414Z,46.10
2018-07-07T12:46:21.322Z,45.90
2018-07-07T12:48:50.303Z,46.80
2018-07-07T12:51:19.121Z,46.80
2018-07-07T12:53:47.932Z,47.10
2018-07-07T12:56:16.846Z,46.90
2018-07-07T12:58:45.657Z,46.80
2018-07-07T13:01:14.554Z,45.20
2018-07-07T13:03:43.376Z,44.80
2018-07-07T13:06:12.373Z,44.30
2018-07-07T13:08:41.212Z,44.50
2018-07-07T13:11:10.139Z,44.70
2018-07-07T13:13:38.980Z,45.40
2018-07-07T13:16:08.013Z,44.70
2018-07-07T13:18:36.931Z,44.40
2018-07-07T13:21:06.125Z,43.90
2018-07-07T13:23:34.962Z,44.00
2018-07-07T13:26:03.905Z,44.00
2018-07-07T13:28:32.741Z,43.50
2018-07-07T13:31:01.624Z,43.70
2018-07-07T13:33:30.528Z,44.10
2018-07-07T13:35:59.400Z,44.10
2018-07-07T13:38:28.434Z,44.80
2018-07-07T13:40:57.288Z,43.80
2018-07-07T13:43:26.147Z,43.70
2018-07-07T13:45:54.995Z,43.40
2018-07-07T13:50:52.369Z,44.20
2018-07-07T13:55:49.785Z,42.80
2018-07-07T13:58:18.632Z,43.20
2018-07-07T14:00:47.491Z,43.20
2018-07-07T14:03:16.356Z,42.90
2018-07-07T14:05:45.196Z,43.70
2018-07-07T14:08:14.068Z,43.20
2018-07-07T14:10:42.928Z,43.70
2018-07-07T14:13:11.756Z,43.30
2018-07-07T14:15:40.603Z,43.30
2018-07-07T14:18:09.569Z,43.20
2018-07-07T14:20:38.484Z,43.30
2018-07-07T14:23:07.348Z,42.50
2018-07-07T14:25:36.223Z,42.80
2018-07-07T14:28:05.084Z,42.80
2018-07-07T14:30:33.999Z,42.30
2018-07-07T14:33:02.826Z,41.80
2018-07-07T14:35:31.670Z,41.00
2018-07-07T14:38:00.524Z,41.50
2018-07-07T14:40:29.433Z,40.20
2018-07-07T14:42:58.274Z,41.70
2018-07-07T14:45:32.920Z,40.80
2018-07-07T14:48:04.105Z,40.40
2018-07-07T14:50:32.980Z,40.30
2018-07-07T14:53:01.973Z,39.60
2018-07-07T14:55:30.788Z,39.60
2018-07-07T14:57:59.723Z,39.70
2018-07-07T15:00:29.220Z,39.80
2018-07-07T15:02:58.521Z,38.70
